Time;durP1;ratioP1;P1;durP2;ratioP2;P2;SDS_P1;SDS_P2;PMS_P1;PMS_P2;Temp;Humidity;BMP_temperature;BMP_pressure;BME280_temperature;BME280_humidity;BME280_pressure;Samples;Min_cycle;Max_cycle;Signal;HPM_P1;HPM_P2
2023/10/23 00:02:18;;;;;;;3.25;2.75;;;;;;;9.56;100.00;101260.44;5116173;28;20032;-74
2023/10/23 00:04:43;;;;;;;3.10;2.90;;;;;;;9.55;100.00;101256.97;5106306;28;20112;-74
2023/10/23 00:07:09;;;;;;;3.15;2.95;;;;;;;9.54;100.00;101259.63;5111974;28;20427;-74
2023/10/23 00:09:34;;;;;;;3.72;3.08;;;;;;;9.49;100.00;101261.53;5116600;28;20059;-74
2023/10/23 00:11:59;;;;;;;3.20;3.00;;;;;;;9.48;100.00;101263.28;5103859;28;20036;-74
2023/10/23 00:14:25;;;;;;;4.53;3.50;;;;;;;9.44;100.00;101264.28;5096458;28;20205;-73
2023/10/23 00:16:50;;;;;;;3.35;3.05;;;;;;;9.43;100.00;101264.34;5096941;28;20238;-73
2023/10/23 00:19:15;;;;;;;3.20;2.90;;;;;;;9.41;100.00;101265.22;5096269;28;20039;-74
2023/10/23 00:21:42;;;;;;;3.10;2.85;;;;;;;9.39;100.00;101272.25;5110302;28;20102;-74
2023/10/23 00:24:08;;;;;;;4.38;3.20;;;;;;;9.39;100.00;101276.63;5108947;28;20258;-74
2023/10/23 00:26:34;;;;;;;2.95;2.75;;;;;;;9.39;100.00;101271.41;5100155;28;20094;-74
2023/10/23 00:29:01;;;;;;;3.08;2.85;;;;;;;9.38;100.00;101269.69;5115025;28;20333;-74
2023/10/23 00:31:26;;;;;;;2.70;2.50;;;;;;;9.37;100.00;101263.59;5109646;28;20127;-74
2023/10/23 00:33:52;;;;;;;3.22;2.92;;;;;;;9.37;100.00;101262.75;5096437;28;20040;-74
2023/10/23 00:36:17;;;;;;;3.58;3.10;;;;;;;9.35;100.00;101261.91;5096504;28;20283;-74
2023/10/23 00:38:42;;;;;;;3.63;3.10;;;;;;;9.33;100.00;101259.38;5112182;28;20027;-74
2023/10/23 00:41:08;;;;;;;4.00;3.33;;;;;;;9.33;100.00;101255.88;5116109;28;20058;-74
2023/10/23 00:43:34;;;;;;;3.55;3.10;;;;;;;9.30;100.00;101262.06;5098353;27;20120;-73
2023/10/23 00:46:00;;;;;;;3.20;2.90;;;;;;;9.28;100.00;101269.09;5114553;28;20072;-73
2023/10/23 00:48:27;;;;;;;3.42;3.15;;;;;;;9.24;100.00;101267.47;5101225;28;20035;-74
2023/10/23 00:50:58;;;;;;;3.13;2.92;;;;;;;9.18;100.00;101271.09;5095562;28;20066;-74
2023/10/23 00:53:27;;;;;;;3.42;2.67;;;;;;;9.15;100.00;101267.72;5098136;28;20040;-74
2023/10/23 00:55:56;;;;;;;3.50;3.20;;;;;;;9.13;100.00;101278.22;5101108;28;20043;-74
2023/10/23 00:58:26;;;;;;;3.15;2.90;;;;;;;9.12;100.00;101270.44;5114591;28;20031;-74
2023/10/23 01:00:53;;;;;;;3.28;3.08;;;;;;;9.10;100.00;101283.53;5115278;28;20039;-74
2023/10/23 01:03:19;;;;;;;2.80;2.60;;;;;;;9.09;100.00;101283.56;5105497;28;20040;-73
2023/10/23 01:05:44;;;;;;;3.42;3.13;;;;;;;9.06;100.00;101284.53;5099604;28;20420;-73
2023/10/23 01:08:10;;;;;;;3.58;3.13;;;;;;;9.05;100.00;101293.25;5109064;28;20046;-73
2023/10/23 01:10:36;;;;;;;3.83;3.53;;;;;;;9.06;100.00;101286.25;5095469;28;20152;-73
2023/10/23 01:13:06;;;;;;;3.38;3.08;;;;;;;9.05;100.00;101290.63;5104131;28;20039;-73
2023/10/23 01:15:31;;;;;;;4.10;3.80;;;;;;;9.05;100.00;101287.16;5109587;28;20039;-74
2023/10/23 01:17:59;;;;;;;3.92;3.63;;;;;;;9.03;100.00;101293.28;5096922;28;20024;-74
2023/10/23 01:20:26;;;;;;;4.03;3.70;;;;;;;9.02;100.00;101294.19;5115174;28;20039;-74
2023/10/23 01:22:55;;;;;;;4.05;3.72;;;;;;;9.02;100.00;101302.03;5105647;28;20121;-74
2023/10/23 01:25:20;;;;;;;;;;;;;;;9.00;100.00;101301.22;5099211;28;20028;-74
2023/10/23 01:27:46;;;;;;;3.85;3.50;;;;;;;8.99;100.00;101296.03;5108449;28;19915;-74
2023/10/23 01:30:11;;;;;;;4.35;3.95;;;;;;;8.99;100.00;101290.81;5114311;27;20289;-74
2023/10/23 01:32:37;;;;;;;4.55;4.15;;;;;;;8.98;100.00;101296.91;5114755;28;20365;-74
2023/10/23 01:35:03;;;;;;;4.05;3.75;;;;;;;8.96;100.00;101291.72;5101959;28;20063;-73
2023/10/23 01:37:28;;;;;;;3.90;3.53;;;;;;;8.95;100.00;101284.81;5114678;28;20035;-74
2023/10/23 01:39:54;;;;;;;4.00;3.70;;;;;;;8.94;100.00;101283.06;5115046;28;20184;-74
2023/10/23 01:42:19;;;;;;;4.07;3.78;;;;;;;8.90;100.00;101286.69;5115304;28;20341;-74
2023/10/23 01:44:44;;;;;;;5.15;4.25;;;;;;;8.86;100.00;101279.81;5103596;28;20358;-73
2023/10/23 01:47:10;;;;;;;5.40;4.15;;;;;;;8.86;100.00;101274.59;5114011;28;20046;-73
2023/10/23 01:49:35;;;;;;;3.72;3.42;;;;;;;8.86;100.00;101278.94;5114277;28;20234;-74
2023/10/23 01:52:01;;;;;;;4.40;4.00;;;;;;;8.85;100.00;101278.09;5111716;28;20032;-74
2023/10/23 01:54:26;;;;;;;5.78;4.13;;;;;;;8.84;100.00;101278.97;5097177;28;20325;-74
2023/10/23 01:56:51;;;;;;;4.78;4.38;;;;;;;8.80;100.00;101277.34;5102068;28;20028;-74
2023/10/23 01:59:17;;;;;;;4.32;3.92;;;;;;;8.77;100.00;101282.69;5097925;28;20338;-74
2023/10/23 02:01:43;;;;;;;4.90;4.50;;;;;;;8.75;100.00;101281.84;5104177;28;20063;-74
2023/10/23 02:04:08;;;;;;;4.43;4.03;;;;;;;8.69;100.00;101282.84;5100166;28;20023;-74
2023/10/23 02:06:33;;;;;;;5.13;4.13;;;;;;;8.64;100.00;101292.56;5104889;28;20336;-74
2023/10/23 02:08:59;;;;;;;4.75;4.35;;;;;;;8.59;100.00;101299.69;5105856;28;20178;-74
2023/10/23 02:11:25;;;;;;;4.20;3.80;;;;;;;8.57;100.00;101297.09;5094401;28;20032;-74
2023/10/23 02:13:50;;;;;;;4.35;4.05;;;;;;;8.55;100.00;101303.22;5097436;28;20035;-74
2023/10/23 02:16:16;;;;;;;4.72;4.43;;;;;;;8.52;100.00;101292.88;5098301;28;20036;-74
2023/10/23 02:18:41;;;;;;;4.25;3.95;;;;;;;8.50;100.00;101298.16;5098595;28;20024;-74
2023/10/23 02:21:06;;;;;;;4.32;4.03;;;;;;;8.48;100.00;101301.66;5098463;28;20086;-74
2023/10/23 02:23:32;;;;;;;4.20;3.90;;;;;;;8.49;100.00;101303.41;5098124;28;20024;-74
2023/10/23 02:25:58;;;;;;;4.65;3.95;;;;;;;8.48;100.00;101304.28;5098712;28;20039;-73
2023/10/23 02:28:23;;;;;;;4.55;4.15;;;;;;;8.43;100.00;101300.03;5098986;28;20326;-73
2023/10/23 02:30:48;;;;;;;5.00;4.10;;;;;;;8.41;100.00;101306.16;5098003;28;20234;-73
2023/10/23 02:33:14;;;;;;;4.72;4.32;;;;;;;8.36;100.00;101300.19;5098332;28;20020;-73
2023/10/23 02:35:39;;;;;;;4.20;3.90;;;;;;;8.34;100.00;101307.22;5098107;28;20023;-73
2023/10/23 02:38:05;;;;;;;4.75;4.28;;;;;;;8.31;100.00;101305.50;5099935;28;20028;-73
2023/10/23 02:40:30;;;;;;;4.50;4.10;;;;;;;8.30;100.00;101306.44;5118039;28;20122;-74
2023/10/23 02:42:55;;;;;;;3.97;3.67;;;;;;;8.31;100.00;101302.91;5118382;28;20039;-74
2023/10/23 02:45:21;;;;;;;4.72;4.40;;;;;;;8.30;100.00;101309.03;5115825;28;20306;-74
2023/10/23 02:47:46;;;;;;;4.32;4.00;;;;;;;8.28;100.00;101308.22;5103652;28;20035;-74
2023/10/23 02:50:12;;;;;;;4.50;4.07;;;;;;;8.22;100.00;101308.34;5117536;28;20330;-74
2023/10/23 02:52:37;;;;;;;4.95;3.85;;;;;;;8.15;100.00;101315.47;5114189;28;20031;-74
2023/10/23 02:55:04;;;;;;;3.95;3.65;;;;;;;8.14;100.00;101307.69;5099104;28;20074;-74
2023/10/23 02:57:29;;;;;;;4.47;3.92;;;;;;;8.13;100.00;101301.59;5085986;28;20059;-74
2023/10/23 02:59:55;;;;;;;3.97;3.67;;;;;;;8.13;100.00;101319.00;5097987;28;20327;-74
2023/10/23 03:02:21;;;;;;;4.15;3.80;;;;;;;8.10;100.00;101317.31;5100163;28;20028;-74
2023/10/23 03:04:46;;;;;;;3.80;3.50;;;;;;;8.09;100.00;101312.97;5097818;28;20036;-74
2023/10/23 03:07:12;;;;;;;4.45;3.80;;;;;;;8.09;100.00;101310.38;5102500;28;20272;-74
2023/10/23 03:09:37;;;;;;;3.80;3.30;;;;;;;8.08;100.00;101313.91;5098040;28;20078;-74
2023/10/23 03:12:03;;;;;;;4.53;3.80;;;;;;;8.04;100.00;101333.97;5098143;28;20031;-74
2023/10/23 03:14:29;;;;;;;4.03;3.53;;;;;;;7.99;100.00;101335.81;5096863;28;20055;-74
2023/10/23 03:16:54;;;;;;;3.08;2.85;;;;;;;7.95;100.00;101334.19;5112204;28;20078;-74
2023/10/23 03:19:22;;;;;;;3.38;3.10;;;;;;;7.94;100.00;101327.22;5103910;28;20043;-74
2023/10/23 03:21:48;;;;;;;3.17;2.97;;;;;;;7.91;100.00;101327.28;5095585;28;20020;-74
2023/10/23 03:24:13;;;;;;;7.28;3.25;;;;;;;7.87;100.00;101344.75;5110212;28;20028;-74
2023/10/23 03:26:38;;;;;;;3.35;3.15;;;;;;;7.86;100.00;101337.84;5103370;28;20088;-74
2023/10/23 03:29:04;;;;;;;3.58;3.28;;;;;;;7.86;100.00;101331.78;5115267;28;20043;-74
2023/10/23 03:31:32;;;;;;;3.40;3.10;;;;;;;7.85;100.00;101328.28;5111888;28;20032;-74
2023/10/23 03:33:58;;;;;;;4.97;3.67;;;;;;;7.87;100.00;101331.72;5109749;28;20039;-74
2023/10/23 03:36:23;;;;;;;3.22;3.03;;;;;;;7.90;100.00;101322.13;5095783;28;20235;-74
2023/10/23 03:38:49;;;;;;;3.40;3.10;;;;;;;7.92;100.00;101333.38;5099587;28;20129;-74
2023/10/23 03:41:14;;;;;;;3.45;3.17;;;;;;;7.91;100.00;101337.72;5097275;28;20035;-74
2023/10/23 03:43:40;;;;;;;3.85;3.45;;;;;;;7.89;100.00;101336.91;5098484;28;20082;-74
2023/10/23 03:46:06;;;;;;;4.40;3.60;;;;;;;7.90;100.00;101330.81;5098667;28;20249;-74
2023/10/23 03:48:35;;;;;;;4.20;3.75;;;;;;;7.93;100.00;101332.47;5112625;28;20094;-74
2023/10/23 03:51:01;;;;;;;4.68;3.95;;;;;;;7.95;100.00;101338.50;5076763;28;20032;-74
2023/10/23 03:53:26;;;;;;;4.72;3.90;;;;;;;7.97;100.00;101336.75;5099768;28;20130;-74
2023/10/23 03:55:51;;;;;;;7.38;4.95;;;;;;;7.99;100.00;101329.75;5102806;28;20034;-74
2023/10/23 03:58:17;;;;;;;5.50;5.00;;;;;;;8.01;100.00;101327.97;5108609;28;20095;-74
2023/10/23 04:00:42;;;;;;;6.75;4.78;;;;;;;8.03;100.00;101334.00;5115901;28;20031;-74
2023/10/23 04:03:07;;;;;;;5.70;5.10;;;;;;;8.07;100.00;101330.44;5116824;28;20095;-74
2023/10/23 04:05:40;;;;;;;6.72;4.85;;;;;;;8.11;100.00;101337.28;5103397;28;20370;-74
2023/10/23 04:08:05;;;;;;;5.55;4.82;;;;;;;8.16;100.00;101330.22;5101514;28;20096;-75
2023/10/23 04:10:31;;;;;;;6.60;5.32;;;;;;;8.19;100.00;101322.31;5107376;28;20047;-75
2023/10/23 04:12:57;;;;;;;7.05;6.22;;;;;;;8.24;100.00;101330.03;5117481;28;20048;-75
2023/10/23 04:15:23;;;;;;;8.10;7.30;;;;;;;8.26;100.00;101333.50;5112801;28;20016;-75
2023/10/23 04:17:48;;;;;;;9.05;7.57;;;;;;;8.27;100.00;101330.81;5108693;28;20275;-75
2023/10/23 04:20:14;;;;;;;10.07;8.75;;;;;;;8.33;100.00;101336.78;5102506;28;20065;-75
2023/10/23 04:22:39;;;;;;;9.00;8.10;;;;;;;8.36;100.00;101334.97;5114552;27;20030;-75
2023/10/23 04:25:05;;;;;;;10.13;9.15;;;;;;;8.38;100.00;101327.09;5112106;28;20035;-75
2023/10/23 04:27:30;;;;;;;10.73;9.55;;;;;;;8.42;100.00;101334.00;5098977;28;20039;-75
2023/10/23 04:29:59;;;;;;;10.35;9.35;;;;;;;8.44;100.00;101330.47;5108180;28;20035;-75
2023/10/23 04:32:25;;;;;;;12.25;10.07;;;;;;;8.48;100.00;101326.03;5095937;28;20042;-75
2023/10/23 04:34:51;;;;;;;13.32;11.68;;;;;;;8.51;100.00;101330.31;5100656;28;20024;-75
2023/10/23 04:37:16;;;;;;;14.95;11.38;;;;;;;8.54;100.00;101328.50;5097938;28;20103;-75
2023/10/23 04:39:41;;;;;;;12.77;11.43;;;;;;;8.57;100.00;101328.44;5096054;28;20070;-75
2023/10/23 04:42:07;;;;;;;13.25;11.32;;;;;;;8.60;100.00;101328.34;5095042;28;20035;-75
2023/10/23 04:44:33;;;;;;;14.10;11.30;;;;;;;8.63;100.00;101333.47;5097224;28;20055;-75
2023/10/23 04:46:59;;;;;;;12.20;10.90;;;;;;;8.67;100.00;101325.59;5107164;28;20285;-75
2023/10/23 04:49:25;;;;;;;12.93;11.20;;;;;;;8.70;100.00;101328.13;5095718;28;20103;-75
2023/10/23 04:51:50;;;;;;;13.27;11.88;;;;;;;8.73;100.00;101331.53;5095220;28;20035;-75
2023/10/23 04:54:16;;;;;;;15.25;13.52;;;;;;;8.76;100.00;101333.19;5095230;28;20074;-75
2023/10/23 04:56:41;;;;;;;14.88;12.90;;;;;;;8.78;100.00;101331.38;5095234;28;20039;-75
2023/10/23 04:59:07;;;;;;;18.55;14.50;;;;;;;8.80;100.00;101330.47;5095867;28;20123;-75
2023/10/23 05:01:33;;;;;;;22.48;17.08;;;;;;;8.82;100.00;101328.69;5095322;28;20260;-75
2023/10/23 05:03:58;;;;;;;20.98;16.30;;;;;;;8.85;100.00;101338.16;5095568;28;20036;-75
2023/10/23 05:06:27;;;;;;;17.65;13.88;;;;;;;8.87;100.00;101336.38;5095304;28;20035;-75
2023/10/23 05:08:53;;;;;;;;;;;;;;;8.89;100.00;101329.34;5096043;28;20085;-75
2023/10/23 05:11:18;;;;;;;16.00;13.20;;;;;;;8.90;100.00;101333.69;5095128;28;19915;-75
2023/10/23 05:13:46;;;;;;;21.67;16.73;;;;;;;8.91;100.00;101327.56;5095419;28;20051;-75
2023/10/23 05:16:12;;;;;;;20.80;16.40;;;;;;;8.94;100.00;101331.88;5095169;28;20061;-75
2023/10/23 05:18:38;;;;;;;22.05;16.77;;;;;;;8.94;100.00;101324.88;5099163;28;20027;-75
2023/10/23 05:21:09;;;;;;;19.48;15.55;;;;;;;8.96;100.00;101325.69;5107820;28;20055;-75
2023/10/23 05:23:35;;;;;;;21.70;15.70;;;;;;;8.98;100.00;101326.50;5110463;28;20035;-75
2023/10/23 05:26:01;;;;;;;19.90;15.10;;;;;;;9.00;100.00;101319.50;5105455;28;20211;-75
2023/10/23 05:28:26;;;;;;;21.77;16.52;;;;;;;9.02;100.00;101327.28;5094900;28;20082;-75
2023/10/23 05:30:52;;;;;;;21.30;15.60;;;;;;;9.03;100.00;101327.25;5099138;28;20059;-75
2023/10/23 05:33:17;;;;;;;20.92;15.18;;;;;;;9.05;100.00;101324.59;5101490;28;20134;-75
2023/10/23 05:35:43;;;;;;;21.65;16.60;;;;;;;9.07;100.00;101324.56;5103499;28;20391;-75
2023/10/23 05:38:08;;;;;;;20.83;15.50;;;;;;;9.09;100.00;101326.22;5114389;28;20365;-75
2023/10/23 05:40:33;;;;;;;24.67;17.52;;;;;;;9.10;100.00;101327.09;5113461;28;20031;-75
2023/10/23 05:42:59;;;;;;;27.33;18.58;;;;;;;9.12;100.00;101326.16;5105830;28;20066;-75
2023/10/23 05:45:24;;;;;;;27.35;18.15;;;;;;;9.13;100.00;101324.38;5098976;28;20322;-75
2023/10/23 05:47:50;;;;;;;24.52;17.38;;;;;;;9.15;100.00;101325.19;5110867;28;20058;-75
2023/10/23 05:50:15;;;;;;;24.60;17.85;;;;;;;9.17;100.00;101328.66;5102139;28;20039;-75
2023/10/23 05:52:40;;;;;;;27.88;19.23;;;;;;;9.17;100.00;101329.50;5103261;28;20070;-75
2023/10/23 05:55:08;;;;;;;26.92;18.00;;;;;;;9.18;100.00;101328.59;5079542;28;20036;-75
2023/10/23 05:57:34;;;;;;;24.80;16.77;;;;;;;9.20;100.00;101326.81;5090852;28;20032;-75
2023/10/23 05:59:59;;;;;;;30.75;20.05;;;;;;;9.21;100.00;101328.50;5090924;28;20058;-75
2023/10/23 06:02:25;;;;;;;26.33;16.98;;;;;;;9.23;100.00;101326.72;5094723;28;20055;-75
2023/10/23 06:04:50;;;;;;;30.77;18.17;;;;;;;9.23;100.00;101328.47;5094178;28;20319;-75
2023/10/23 06:07:15;;;;;;;27.73;18.25;;;;;;;9.24;100.00;101332.81;5094580;28;20032;-75
2023/10/23 06:09:41;;;;;;;32.25;19.73;;;;;;;9.27;100.00;101337.09;5094149;28;20103;-75
2023/10/23 06:12:07;;;;;;;38.00;21.80;;;;;;;9.28;100.00;101336.16;5094344;28;20070;-75
2023/10/23 06:14:33;;;;;;;31.80;19.15;;;;;;;9.31;100.00;101338.72;5092779;28;20056;-75
2023/10/23 06:16:59;;;;;;;30.52;18.10;;;;;;;9.30;100.00;101335.25;5105032;28;20528;-75
2023/10/23 06:19:25;;;;;;;33.47;19.50;;;;;;;9.34;100.00;101330.78;5114674;28;20322;-75
2023/10/23 06:21:50;;;;;;;30.17;17.95;;;;;;;9.36;100.00;101337.69;5097364;28;20437;-75
2023/10/23 06:24:15;;;;;;;32.78;19.95;;;;;;;9.37;100.00;101336.78;5093620;28;20093;-75
2023/10/23 06:26:41;;;;;;;32.42;19.63;;;;;;;9.38;100.00;101335.03;5084304;28;20346;-75
2023/10/23 06:29:06;;;;;;;33.95;19.90;;;;;;;9.39;100.00;101335.00;5094324;28;20385;-75
2023/10/23 06:31:31;;;;;;;32.92;19.05;;;;;;;9.41;100.00;101340.19;5101628;28;20254;-75
2023/10/23 06:33:57;;;;;;;36.60;20.70;;;;;;;9.41;100.00;101335.81;5094596;28;20032;-75
2023/10/23 06:36:22;;;;;;;42.20;23.33;;;;;;;9.41;100.00;101327.09;5097311;28;20035;-75
2023/10/23 06:38:48;;;;;;;42.38;23.20;;;;;;;9.42;100.00;101323.56;5096818;28;20036;-75
2023/10/23 06:41:13;;;;;;;41.38;23.15;;;;;;;9.43;100.00;101322.69;5109864;28;20050;-75
2023/10/23 06:43:39;;;;;;;47.03;24.13;;;;;;;9.46;100.00;101316.50;5104739;28;20096;-75
2023/10/23 06:46:04;;;;;;;40.20;21.98;;;;;;;9.48;100.00;101320.81;5101425;28;20035;-75
2023/10/23 06:48:30;;;;;;;41.25;22.45;;;;;;;9.50;100.00;101328.63;5092942;28;20040;-75
2023/10/23 06:50:59;;;;;;;43.63;22.95;;;;;;;9.52;100.00;101326.81;5095895;28;20312;-75
2023/10/23 06:53:25;;;;;;;46.80;23.95;;;;;;;9.53;100.00;101323.28;5095332;28;20040;-75
2023/10/23 06:55:52;;;;;;;42.15;22.77;;;;;;;9.55;100.00;101329.31;5094014;28;20054;-75
2023/10/23 06:58:19;;;;;;;44.53;22.77;;;;;;;9.56;100.00;101334.50;5112614;28;20106;-75
2023/10/23 07:00:45;;;;;;;42.17;22.17;;;;;;;9.57;100.00;101333.63;5115273;28;20032;-75
2023/10/23 07:03:10;;;;;;;42.55;22.35;;;;;;;9.60;100.00;101338.78;5113050;28;20058;-75
2023/10/23 07:05:36;;;;;;;49.70;24.52;;;;;;;9.61;100.00;101339.63;5108724;28;20084;-75
2023/10/23 07:08:01;;;;;;;46.75;24.40;;;;;;;9.62;100.00;101330.84;5102830;28;20043;-74
2023/10/23 07:10:27;;;;;;;42.67;22.58;;;;;;;9.64;100.00;101336.94;5093678;28;20043;-75
2023/10/23 07:12:53;;;;;;;62.95;27.85;;;;;;;9.64;100.00;101334.31;5091811;28;20043;-75
2023/10/23 07:15:19;;;;;;;50.50;23.70;;;;;;;9.66;100.00;101327.28;5097190;28;20035;-75
2023/10/23 07:17:44;;;;;;;50.42;24.10;;;;;;;9.68;100.00;101333.31;5107746;28;20038;-75
2023/10/23 07:20:10;;;;;;;55.33;25.95;;;;;;;9.69;100.00;101331.53;5100004;28;20103;-75
2023/10/23 07:22:36;;;;;;;59.78;26.55;;;;;;;9.70;100.00;101334.13;5116861;28;20032;-75
2023/10/23 07:25:02;;;;;;;49.58;23.92;;;;;;;9.72;100.00;101327.09;5101219;28;20272;-75
2023/10/23 07:27:28;;;;;;;59.00;25.95;;;;;;;9.74;100.00;101325.28;5097522;28;20130;-75
2023/10/23 07:29:53;;;;;;;54.70;25.15;;;;;;;9.77;100.00;101338.28;5096724;28;20027;-74
2023/10/23 07:32:19;;;;;;;77.78;30.50;;;;;;;9.77;100.00;101333.03;5098922;28;20036;-75
2023/10/23 07:34:44;;;;;;;64.32;28.95;;;;;;;9.87;100.00;101332.75;5096744;28;20355;-75
2023/10/23 07:37:11;;;;;;;68.03;31.20;;;;;;;9.86;100.00;101337.16;5097003;28;20019;-75
2023/10/23 07:39:36;;;;;;;79.25;32.28;;;;;;;9.90;100.00;101346.63;5096936;28;20354;-75
2023/10/23 07:42:02;;;;;;;65.10;29.75;;;;;;;9.89;100.00;101336.19;5097389;28;20032;-75
2023/10/23 07:44:28;;;;;;;62.05;27.42;;;;;;;9.88;100.00;101342.34;5094001;28;20027;-75
2023/10/23 07:46:53;;;;;;;57.42;27.20;;;;;;;9.88;100.00;101343.19;5092945;28;20352;-75
2023/10/23 07:49:18;;;;;;;57.08;25.48;;;;;;;9.90;100.00;101341.38;5096091;28;20036;-75
2023/10/23 07:51:44;;;;;;;55.28;25.65;;;;;;;9.88;100.00;101332.72;5093199;28;20069;-75
2023/10/23 07:54:10;;;;;;;57.53;27.15;;;;;;;9.90;100.00;101330.91;5088174;28;20083;-75
2023/10/23 07:56:35;;;;;;;55.03;25.13;;;;;;;9.91;100.00;101329.16;5084459;28;20040;-75
2023/10/23 07:59:01;;;;;;;50.83;23.00;;;;;;;9.92;100.00;101323.03;5104841;28;20031;-75
2023/10/23 08:01:26;;;;;;;50.33;23.60;;;;;;;9.97;100.00;101316.75;5089447;28;20040;-75
2023/10/23 08:03:52;;;;;;;58.63;26.10;;;;;;;10.04;100.00;101327.00;5095658;28;20031;-75
2023/10/23 08:06:17;;;;;;;54.75;26.13;;;;;;;10.00;100.00;101313.16;5096064;28;20349;-75
2023/10/23 08:08:44;;;;;;;57.17;25.40;;;;;;;10.03;100.00;101314.84;5098592;28;20100;-75
2023/10/23 08:11:11;;;;;;;47.92;23.63;;;;;;;10.10;100.00;101319.00;5093113;27;20036;-75
2023/10/23 08:13:37;;;;;;;45.25;22.83;;;;;;;10.11;100.00;101313.69;5091321;28;20034;-74
2023/10/23 08:16:04;;;;;;;41.40;21.98;;;;;;;10.12;100.00;101317.19;5084727;28;20036;-75
2023/10/23 08:18:29;;;;;;;43.80;22.95;;;;;;;10.17;100.00;101317.91;5093836;28;20421;-75
2023/10/23 08:20:55;;;;;;;39.95;21.42;;;;;;;10.13;100.00;101317.13;5090125;28;20043;-75
2023/10/23 08:23:20;;;;;;;45.03;22.30;;;;;;;10.09;100.00;101319.88;5094931;28;20263;-75
2023/10/23 08:25:45;;;;;;;37.42;20.63;;;;;;;10.06;100.00;101318.22;5091610;28;20036;-75
2023/10/23 08:28:11;;;;;;;33.60;19.92;;;;;;;10.06;100.00;101323.47;5089983;28;20024;-74
2023/10/23 08:30:36;;;;;;;38.47;21.73;;;;;;;10.08;100.00;101326.03;5092180;28;20315;-75
2023/10/23 08:33:03;;;;;;;41.20;21.80;;;;;;;10.08;100.00;101324.28;5096180;28;20028;-75
2023/10/23 08:35:29;;;;;;;39.88;22.45;;;;;;;10.09;100.00;101325.97;5087622;28;20031;-75
2023/10/23 08:37:54;;;;;;;39.63;20.77;;;;;;;10.11;100.00;101323.31;5099571;28;20094;-75
2023/10/23 08:40:21;;;;;;;39.28;21.48;;;;;;;10.13;100.00;101314.53;5084514;28;20036;-75
2023/10/23 08:42:47;;;;;;;43.20;23.17;;;;;;;10.15;100.00;101317.94;5093679;28;20050;-75
2023/10/23 08:45:14;;;;;;;50.22;24.00;;;;;;;10.16;100.00;101314.41;5092266;28;20023;-75
2023/10/23 08:47:40;;;;;;;40.00;22.75;;;;;;;10.10;100.00;101319.84;5096141;28;20190;-75
2023/10/23 08:50:06;;;;;;;41.05;21.48;;;;;;;10.14;100.00;101323.22;5095019;28;20044;-75
2023/10/23 08:52:37;;;;;;;38.30;21.40;;;;;;;10.13;100.00;101324.13;5077224;28;20043;-75
2023/10/23 08:55:07;;;;;;;38.30;21.00;;;;;;;10.15;100.00;101323.19;5097887;28;20039;-75
2023/10/23 08:57:34;;;;;;;37.47;21.25;;;;;;;10.16;100.00;101327.50;5093157;28;20101;-75
2023/10/23 09:00:00;;;;;;;37.15;20.63;;;;;;;10.17;100.00;101323.97;5092370;28;20039;-75
2023/10/23 09:02:27;;;;;;;39.42;22.05;;;;;;;10.19;100.00;101327.41;5085571;28;20032;-75
2023/10/23 09:04:53;;;;;;;35.65;20.27;;;;;;;10.22;100.00;101322.97;5091099;28;20028;-74
2023/10/23 09:07:18;;;;;;;36.85;20.67;;;;;;;10.26;100.00;101321.97;5091514;28;20101;-75
2023/10/23 09:09:43;;;;;;;41.47;21.73;;;;;;;10.28;100.00;101321.03;5094098;28;20036;-75
2023/10/23 09:12:29;;;;;;;42.28;22.13;;;;;;;10.30;100.00;101321.00;5089680;28;20319;-75
2023/10/23 09:14:55;;;;;;;39.53;21.65;;;;;;;10.32;100.00;101322.66;5084882;28;20043;-75
2023/10/23 09:17:21;;;;;;;38.15;21.30;;;;;;;10.35;100.00;101319.09;5090613;28;20031;-75
2023/10/23 09:19:48;;;;;;;39.95;22.05;;;;;;;10.34;100.00;101323.47;5093874;28;20031;-74
2023/10/23 09:22:13;;;;;;;40.25;21.27;;;;;;;10.35;100.00;101321.69;5084042;28;20032;-75
2023/10/23 09:24:39;;;;;;;35.78;20.95;;;;;;;10.35;100.00;101321.69;5093148;28;20020;-75
2023/10/23 09:27:04;;;;;;;31.15;18.90;;;;;;;10.35;100.00;101319.09;5083697;28;20340;-75
2023/10/23 09:29:30;;;;;;;32.75;20.08;;;;;;;10.32;100.00;101322.66;5086926;28;20027;-75
2023/10/23 09:31:59;;;;;;;35.55;20.35;;;;;;;10.28;100.00;101314.94;5089594;28;20016;-75
2023/10/23 09:34:25;;;;;;;28.17;18.02;;;;;;;10.31;100.00;101323.56;5087921;28;20044;-75
2023/10/23 09:36:51;;;;;;;32.75;19.73;;;;;;;10.29;100.00;101319.25;5090954;28;20095;-74
2023/10/23 09:39:18;;;;;;;26.38;17.83;;;;;;;10.27;100.00;101318.47;5084272;28;20040;-74
2023/10/23 09:41:48;;;;;;;32.60;18.27;;;;;;;10.26;100.00;101316.72;5089483;28;20052;-74
2023/10/23 09:44:14;;;;;;;28.88;17.85;;;;;;;10.27;100.00;101311.44;5092593;28;20063;-75
2023/10/23 09:46:42;;;;;;;39.03;20.05;;;;;;;10.23;100.00;101312.47;5091697;28;20047;-74
2023/10/23 09:49:09;;;;;;;29.93;18.27;;;;;;;10.23;100.00;101316.84;5092612;28;20449;-74
2023/10/23 09:51:39;;;;;;;33.00;19.75;;;;;;;10.21;100.00;101314.28;5089531;28;20323;-74
2023/10/23 09:54:19;;;;;;;32.50;18.35;;;;;;;10.27;100.00;101311.44;5092505;28;20048;-75
2023/10/23 09:56:51;;;;;;;42.55;21.75;;;;;;;10.32;100.00;101299.09;5080172;28;20091;-75
2023/10/23 09:59:18;;;;;;;45.05;22.50;;;;;;;10.33;100.00;101313.03;5088977;28;20071;-75
2023/10/23 10:01:48;;;;;;;43.00;21.42;;;;;;;10.33;100.00;101313.94;5093830;28;20028;-74
2023/10/23 10:04:27;;;;;;;56.15;24.10;;;;;;;10.27;100.00;101307.97;5092190;28;20405;-74
2023/10/23 10:06:57;;;;;;;52.78;24.02;;;;;;;10.29;100.00;101309.63;5084658;28;20284;-74
2023/10/23 10:09:26;;;;;;;45.17;22.05;;;;;;;10.30;100.00;101315.75;5084366;28;20043;-74
2023/10/23 10:11:55;;;;;;;52.20;23.13;;;;;;;10.28;100.00;101315.78;5095986;28;20263;-75
2023/10/23 10:14:23;;;;;;;51.35;23.55;;;;;;;10.33;100.00;101310.44;5096343;28;20062;-75
2023/10/23 10:16:50;;;;;;;49.57;23.97;;;;;;;10.35;100.00;101304.25;5093478;28;20042;-74
2023/10/23 10:19:16;;;;;;;51.83;23.05;;;;;;;10.40;100.00;101304.09;5090447;28;20047;-75
2023/10/23 10:21:54;;;;;;;50.30;23.30;;;;;;;10.45;100.00;101294.31;5081477;28;20040;-75
2023/10/23 10:24:23;;;;;;;58.42;25.30;;;;;;;10.49;100.00;101295.94;5091052;28;20042;-74
2023/10/23 10:26:49;;;;;;;57.15;25.50;;;;;;;10.52;100.00;101295.00;5099295;28;20027;-74
2023/10/23 10:29:15;;;;;;;49.53;23.10;;;;;;;10.53;100.00;101296.69;5092574;28;20333;-74
2023/10/23 10:32:05;;;;;;;51.85;24.58;;;;;;;10.52;100.00;101295.84;5092664;28;20077;-74
2023/10/23 10:34:34;;;;;;;59.25;26.23;;;;;;;10.50;100.00;101294.19;5094791;28;20391;-74
2023/10/23 10:37:01;;;;;;;51.72;24.15;;;;;;;10.48;100.00;101293.38;5101072;28;20039;-74
2023/10/23 10:39:52;;;;;;;49.85;25.25;;;;;;;10.49;100.00;101289.84;5080740;28;20034;-74
2023/10/23 10:42:30;;;;;;;56.20;25.55;;;;;;;10.49;100.00;101289.84;5084129;28;20091;-74
2023/10/23 10:44:59;;;;;;;61.70;26.48;;;;;;;10.53;100.00;101283.59;5085245;28;20074;-74
2023/10/23 10:47:39;;;;;;;56.05;27.08;;;;;;;10.57;100.00;101283.44;5094628;28;20039;-74
2023/10/23 10:50:05;;;;;;;52.67;24.75;;;;;;;10.60;100.00;101276.41;5096489;28;20024;-74
2023/10/23 10:52:35;;;;;;;56.33;26.02;;;;;;;10.66;100.00;101263.06;5098815;28;20035;-74
2023/10/23 10:55:05;;;;;;;43.58;23.38;;;;;;;10.71;100.00;101256.81;5096888;28;20096;-74
2023/10/23 10:57:31;;;;;;;58.53;25.05;;;;;;;10.80;100.00;101255.59;5089919;28;20138;-74
2023/10/23 11:00:00;;;;;;;54.92;25.88;;;;;;;10.87;100.00;101251.00;5080592;28;20032;-74
2023/10/23 11:02:26;;;;;;;57.40;25.83;;;;;;;10.88;100.00;101250.97;5083731;28;20035;-74
2023/10/23 11:04:51;;;;;;;47.72;24.27;;;;;;;10.93;100.00;101250.78;5096827;28;20066;-74
2023/10/23 11:07:25;;;;;;;44.70;23.80;;;;;;;10.97;100.00;101243.66;5099441;28;20357;-74
2023/10/23 11:09:52;;;;;;;45.63;22.67;;;;;;;11.00;100.00;101236.56;5084434;28;20088;-74
2023/10/23 11:12:18;;;;;;;52.28;24.60;;;;;;;11.00;100.00;101230.47;5096246;28;20039;-74